Tropical Cyclones
[Index]
Main Index Home Page Stock Weather Photos Extreme Storms Discussion Storm News and Storm Chasing Reports Tropical Cyclones / Hurricanes / Typhoons Weather Data and Links Wild Fires / Bushfires Weather Observation Techniques Weather Picture Catalogue Tornado Pictures and Reports Stock Video Footage and DVDs for sale
Season 1957-1958 Tropical Cyclone 195758_08 Track Map
Season 1957-1958 Summaries: [BoM-AU] [JTWC-AU] [JTWC-SIO] [JTWC-SPAC] [JTWC-SH]
<<- Previous TC | BoM 1957-1958 Season | Next TC ->>

click for intensity scale information  Lat/long Grid: Show Hide

 Date Labels: Show Hide

Bureau of Meteorology Tropical Cyclone Data

Name: 195758_08
Number: 297 / 195758_08

12 Feb 1958 05:00 UTC to 24 Feb 1958 23:00 UTC

    date/time    lat    long    hPa   cat  kts
1958-02-12 05   13.0   139.0   1002                     
1958-02-12 23   13.6   138.6   1000                     
1958-02-13 05   14.2   139.2   1000                     
1958-02-13 23   15.5   140.5    998                     
1958-02-14 05   16.3   140.8    996                     
1958-02-14 23   18.0   142.0   1003                     
1958-02-15 05   17.0   142.8   1000                     
1958-02-15 11   15.6   146.2   1001                     
1958-02-15 23   17.2   147.8   1000                     
1958-02-16 11   18.0   149.0    998                     
1958-02-16 23   19.3   150.0    998                     
1958-02-17 11   18.5   150.0    998                     
1958-02-17 23   17.5   153.0   1000                     
1958-02-18 11   15.8   149.6   1000                     
1958-02-18 23   16.6   149.2    998                     
1958-02-19 11   17.0   149.5    994    1                
1958-02-19 23   19.2   148.0    994    1                
1958-02-20 11   20.0   147.5    995    1                
1958-02-20 23   19.3   147.5    995    1                
1958-02-21 11   19.4   149.5    998                     
1958-02-21 23   19.5   150.0    998                     
1958-02-22 11   20.0   150.0    998                     
1958-02-22 23   20.0   151.5   1002                     
1958-02-23 11   21.0   155.0   1004                     
1958-02-23 23   20.4   157.6   1008                     
1958-02-24 23   17.6   158.6   1008                     
Winds are 10-min average.

Tropical cyclone tracks developed by Michael Bath using data from the Bureau of Meteorology and Google Maps.


[Australian Severe Weather index] [Copyright Notice] [Email Contacts] [Search This Site] [Privacy Policy]
Document: tropical_cyclone_195758_08.htm Updated: 30 May 2013